createdAt,value
2022-10-21T00:00:50.126Z,100660.97
2022-10-21T00:03:18.009Z,100652.84
2022-10-21T00:05:47.492Z,100646.56
2022-10-21T00:08:15.888Z,100639.41
2022-10-21T00:10:43.595Z,100634.84
2022-10-21T00:13:11.306Z,100634.78
2022-10-21T00:15:39.224Z,100637.47
2022-10-21T00:18:06.898Z,100653.63
2022-10-21T00:20:37.359Z,100646.41
2022-10-21T00:23:08.612Z,100641.03
2022-10-21T00:25:36.272Z,100661.59
2022-10-21T00:28:03.908Z,100663.38
2022-10-21T00:30:31.571Z,100666.03
2022-10-21T00:33:02.219Z,100671.41
2022-10-21T00:35:34.599Z,100678.50
2022-10-21T00:38:02.222Z,100673.13
2022-10-21T00:40:31.470Z,100676.63
2022-10-21T00:42:59.322Z,100682.00
2022-10-21T00:45:28.690Z,100678.41
2022-10-21T00:48:02.008Z,100673.94
2022-10-21T00:50:36.416Z,100683.78
2022-10-21T00:53:08.885Z,100671.25
2022-10-21T00:55:41.799Z,100673.94
2022-10-21T00:58:09.671Z,100671.25
2022-10-21T01:00:37.842Z,100670.38
2022-10-21T01:03:05.646Z,100674.91
2022-10-21T01:05:33.845Z,100673.06
2022-10-21T01:08:01.778Z,100668.63
2022-10-21T01:10:30.235Z,100674.91
2022-10-21T01:13:09.150Z,100672.25
2022-10-21T01:15:43.553Z,100669.63
2022-10-21T01:18:19.158Z,100658.91
2022-10-21T01:21:19.827Z,100657.28
2022-10-21T01:24:11.900Z,100658.34
2022-10-21T01:27:11.890Z,100648.59
2022-10-21T01:30:01.845Z,100638.84
2022-10-21T01:32:41.962Z,100639.91
2022-10-21T01:35:17.804Z,100634.63
2022-10-21T01:37:54.068Z,100634.75
2022-10-21T01:40:26.869Z,100626.75
2022-10-21T01:42:57.997Z,100626.91
2022-10-21T01:45:33.414Z,100622.56
2022-10-21T01:48:08.845Z,100612.75
2022-10-21T01:50:42.753Z,100612.84
2022-10-21T01:53:14.328Z,100604.88
2022-10-21T01:55:44.337Z,100604.91
2022-10-21T01:58:17.252Z,100605.88
2022-10-21T02:00:45.691Z,100605.13
2022-10-21T02:03:19.802Z,100601.56
2022-10-21T02:05:47.531Z,100593.53
2022-10-21T02:08:15.314Z,100595.38
2022-10-21T02:10:46.693Z,100592.72
2022-10-21T02:13:21.365Z,100584.75
2022-10-21T02:15:49.153Z,100581.25
2022-10-21T02:18:23.657Z,100579.53
2022-10-21T02:20:57.235Z,100577.91
2022-10-21T02:23:35.033Z,100564.56
2022-10-21T02:26:03.414Z,100567.44
2022-10-21T02:28:31.228Z,100572.00
2022-10-21T02:31:07.567Z,100574.81
2022-10-21T02:33:48.533Z,100566.81
2022-10-21T02:36:22.535Z,100564.22
2022-10-21T02:38:55.371Z,100564.25
2022-10-21T02:41:25.987Z,100558.94
2022-10-21T02:43:57.663Z,100556.34
2022-10-21T02:46:26.556Z,100559.13
2022-10-21T02:48:55.563Z,100550.34
2022-10-21T02:51:23.263Z,100548.56
2022-10-21T02:53:50.922Z,100544.16
2022-10-21T02:56:18.579Z,100546.94
2022-10-21T02:58:46.284Z,100549.63
2022-10-21T03:01:13.988Z,100555.94
2022-10-21T03:03:41.721Z,100551.56
2022-10-21T03:06:10.769Z,100557.00
2022-10-21T03:08:38.549Z,100567.78
2022-10-21T03:11:06.597Z,100557.09
2022-10-21T03:13:34.249Z,100558.94
2022-10-21T03:16:01.914Z,100554.47
2022-10-21T03:18:29.587Z,100550.97
2022-10-21T03:20:57.201Z,100551.97
2022-10-21T03:23:26.238Z,100537.69
2022-10-21T03:25:53.865Z,100535.91
2022-10-21T03:28:21.500Z,100542.28
2022-10-21T03:30:49.164Z,100538.72
2022-10-21T03:33:16.758Z,100551.25
2022-10-21T03:35:44.349Z,100547.69
2022-10-21T03:38:12.007Z,100554.84
2022-10-21T03:40:41.037Z,100551.28
2022-10-21T03:43:08.765Z,100537.91
2022-10-21T03:45:39.324Z,100537.03
2022-10-21T03:48:07.292Z,100547.81
2022-10-21T03:50:37.976Z,100551.41
2022-10-21T03:53:13.788Z,100547.81
2022-10-21T03:55:56.635Z,100544.31
2022-10-21T03:58:25.247Z,100538.94
2022-10-21T04:00:53.772Z,100547.91
2022-10-21T04:03:21.759Z,100538.16
2022-10-21T04:05:49.480Z,100533.75
2022-10-21T04:08:17.152Z,100532.84
2022-10-21T04:10:45.665Z,100531.97
2022-10-21T04:13:15.225Z,100535.47
2022-10-21T04:15:42.962Z,100530.09
2022-10-21T04:18:10.636Z,100538.25
2022-10-21T04:20:38.260Z,100537.41
2022-10-21T04:23:06.002Z,100527.69
2022-10-21T04:25:33.699Z,100532.09
2022-10-21T04:28:01.376Z,100521.41
2022-10-21T04:30:30.407Z,100524.09
2022-10-21T04:32:58.092Z,100532.16
2022-10-21T04:35:25.754Z,100530.38
2022-10-21T04:37:53.487Z,100531.22
2022-10-21T04:40:21.178Z,100525.00
2022-10-21T04:42:49.358Z,100525.00
2022-10-21T04:45:17.207Z,100514.38
2022-10-21T04:47:46.394Z,100518.81
2022-10-21T04:50:14.076Z,100516.16
2022-10-21T04:52:41.810Z,100513.44
2022-10-21T04:55:09.982Z,100512.53
2022-10-21T04:57:37.647Z,100512.47
2022-10-21T05:00:06.255Z,100508.84
2022-10-21T05:02:34.093Z,100523.09
2022-10-21T05:05:03.259Z,100528.38
2022-10-21T05:07:30.894Z,100518.41
2022-10-21T05:09:58.551Z,100520.94
2022-10-21T05:12:26.240Z,100530.72
2022-10-21T05:14:53.959Z,100516.22
2022-10-21T05:17:21.848Z,100509.00
2022-10-21T05:19:49.489Z,100515.16
2022-10-21T05:22:18.588Z,100510.59
2022-10-21T05:24:46.321Z,100510.50
2022-10-21T05:27:14.052Z,100511.31
2022-10-21T05:29:41.759Z,100506.81
2022-10-21T05:32:09.449Z,100493.22
2022-10-21T05:34:37.105Z,100493.13
2022-10-21T05:37:04.749Z,100505.63
2022-10-21T05:39:33.840Z,100492.22
2022-10-21T05:42:01.511Z,100488.69
2022-10-21T05:44:29.170Z,100487.84
2022-10-21T05:46:56.798Z,100487.00
2022-10-21T05:49:24.431Z,100486.09
2022-10-21T05:51:52.077Z,100487.00
2022-10-21T05:54:19.727Z,100481.63
2022-10-21T05:56:49.186Z,100479.84
2022-10-21T05:59:17.162Z,100474.47
2022-10-21T06:01:44.815Z,100478.94
2022-10-21T06:04:12.421Z,100476.34
2022-10-21T06:06:40.166Z,100478.22
2022-10-21T06:09:08.110Z,100471.97
2022-10-21T06:11:35.787Z,100470.16
2022-10-21T06:14:05.137Z,100477.28
2022-10-21T06:16:35.099Z,100483.59
2022-10-21T06:19:03.004Z,100490.72
2022-10-21T06:21:30.674Z,100479.09
2022-10-21T06:23:58.320Z,100477.41
2022-10-21T06:26:26.017Z,100480.19
2022-10-21T06:28:53.711Z,100481.13
2022-10-21T06:31:22.738Z,100472.31
2022-10-21T06:33:50.926Z,100477.69
2022-10-21T06:36:18.687Z,100475.91
2022-10-21T06:38:47.147Z,100483.09
2022-10-21T06:41:15.797Z,100487.53
2022-10-21T06:43:43.796Z,100487.50
2022-10-21T06:46:13.907Z,100489.19
2022-10-21T06:48:43.436Z,100488.25
2022-10-21T06:51:16.762Z,100495.38
2022-10-21T06:53:48.741Z,100495.34
2022-10-21T06:56:18.650Z,100497.97
2022-10-21T06:58:48.890Z,100513.13
2022-10-21T07:01:33.757Z,100520.19
2022-10-21T07:04:08.203Z,100510.22
2022-10-21T07:06:35.942Z,100514.53
2022-10-21T07:09:05.026Z,100514.44
2022-10-21T07:11:33.077Z,100508.13
2022-10-21T07:14:01.889Z,100502.69
2022-10-21T07:16:31.679Z,100502.69
2022-10-21T07:18:59.847Z,100518.88
2022-10-21T07:21:31.612Z,100525.13
2022-10-21T07:24:00.854Z,100523.38
2022-10-21T07:26:30.047Z,100526.88
2022-10-21T07:29:00.421Z,100523.22
2022-10-21T07:31:29.855Z,100522.22
2022-10-21T07:33:57.612Z,100535.56
2022-10-21T07:36:28.921Z,100545.31
2022-10-21T07:38:59.691Z,100555.03
2022-10-21T07:41:29.952Z,100545.00
2022-10-21T07:43:59.180Z,100562.78
2022-10-21T07:46:27.058Z,100555.44
2022-10-21T07:48:54.781Z,100551.72
2022-10-21T07:51:28.379Z,100553.44
2022-10-21T07:54:00.458Z,100553.34
2022-10-21T07:56:30.202Z,100555.91
2022-10-21T07:58:58.667Z,100563.00
2022-10-21T08:01:26.550Z,100554.78
2022-10-21T08:03:55.084Z,100560.00
2022-10-21T08:06:24.651Z,100567.97
2022-10-21T08:08:52.652Z,100567.81
2022-10-21T08:11:26.692Z,100557.81
2022-10-21T08:13:55.117Z,100556.69
2022-10-21T08:16:23.407Z,100548.50
2022-10-21T08:18:51.737Z,100535.00
2022-10-21T08:21:19.482Z,100537.53
2022-10-21T08:23:47.145Z,100535.66
2022-10-21T08:26:21.408Z,100535.66
2022-10-21T08:28:50.528Z,100531.88
2022-10-21T08:31:20.854Z,100538.13
2022-10-21T08:33:48.926Z,100550.63
2022-10-21T08:36:20.936Z,100546.00
2022-10-21T08:38:52.687Z,100548.63
2022-10-21T08:41:44.523Z,100553.03
2022-10-21T08:44:26.633Z,100553.91
2022-10-21T08:46:58.919Z,100557.44
2022-10-21T08:49:30.831Z,100553.84
2022-10-21T08:52:03.390Z,100561.94
2022-10-21T08:54:40.027Z,100552.94
2022-10-21T08:57:11.389Z,100548.41
2022-10-21T08:59:42.137Z,100555.44
2022-10-21T09:02:30.845Z,100547.31
2022-10-21T09:05:23.678Z,100548.06
2022-10-21T09:07:57.228Z,100546.25
2022-10-21T09:10:33.470Z,100548.91
2022-10-21T09:13:08.170Z,100562.25
2022-10-21T09:15:51.699Z,100573.84
2022-10-21T09:18:32.421Z,100563.88
2022-10-21T09:21:08.537Z,100571.78
2022-10-21T09:23:48.136Z,100572.53
2022-10-21T09:26:30.531Z,100572.41
2022-10-21T09:28:58.786Z,100573.13
2022-10-21T09:31:30.210Z,100577.41
2022-10-21T09:34:03.649Z,100587.03
2022-10-21T09:36:37.042Z,100588.59
2022-10-21T09:39:13.420Z,100583.94
2022-10-21T09:41:45.249Z,100600.78
2022-10-21T09:44:18.187Z,100594.31
2022-10-21T09:46:48.012Z,100592.47
2022-10-21T09:49:47.838Z,100594.31
2022-10-21T09:52:12.582Z,100587.09
2022-10-21T09:54:41.931Z,100595.91
2022-10-21T09:57:15.401Z,100598.59
2022-10-21T09:59:58.757Z,100605.84
2022-10-21T10:02:32.871Z,100613.16
2022-10-21T10:05:00.644Z,100619.50
2022-10-21T10:07:36.102Z,100623.16
2022-10-21T10:10:29.851Z,100610.63
2022-10-21T10:12:58.580Z,100629.38
2022-10-21T10:15:35.886Z,100616.72
2022-10-21T10:18:05.544Z,100621.03
2022-10-21T10:20:33.285Z,100629.94
2022-10-21T10:23:18.874Z,100622.69
2022-10-21T10:25:52.747Z,100630.66
2022-10-21T10:28:24.723Z,100615.34
2022-10-21T10:30:55.815Z,100629.56
2022-10-21T10:33:27.687Z,100638.31
2022-10-21T10:35:57.531Z,100638.97
2022-10-21T10:38:29.236Z,100646.84
2022-10-21T10:41:05.005Z,100642.09
2022-10-21T10:43:36.053Z,100626.72
2022-10-21T10:46:06.349Z,100624.66
2022-10-21T10:48:40.531Z,100630.72
2022-10-21T10:51:23.651Z,100632.38
2022-10-21T10:54:02.529Z,100634.00
2022-10-21T10:56:33.081Z,100629.34
2022-10-21T10:59:15.740Z,100623.03
2022-10-21T11:01:45.977Z,100623.16
2022-10-21T11:04:19.643Z,100622.22
2022-10-21T11:06:52.170Z,100626.53
2022-10-21T11:09:23.869Z,100638.19
2022-10-21T11:11:56.419Z,100634.53
2022-10-21T11:14:24.347Z,100630.88
2022-10-21T11:17:06.270Z,100624.56
2022-10-21T11:19:45.776Z,100638.84
2022-10-21T11:22:20.978Z,100628.06
2022-10-21T11:25:04.617Z,100629.03
2022-10-21T11:27:46.353Z,100635.16
2022-10-21T11:30:19.693Z,100623.44
2022-10-21T11:33:08.440Z,100624.22
2022-10-21T11:35:51.317Z,100624.03
2022-10-21T11:38:33.372Z,100629.25
2022-10-21T11:41:09.166Z,100626.47
2022-10-21T11:43:47.208Z,100628.06
2022-10-21T11:46:20.953Z,100628.81
2022-10-21T11:49:09.399Z,100624.94
2022-10-21T11:51:45.911Z,100626.31
2022-10-21T11:54:35.403Z,100619.53
2022-10-21T11:57:10.499Z,100621.84
2022-10-21T11:59:59.340Z,100628.63
2022-10-21T12:02:40.374Z,100620.31
2022-10-21T12:05:13.709Z,100612.81
2022-10-21T12:07:58.706Z,100613.41
2022-10-21T12:10:33.371Z,100613.28
2022-10-21T12:13:06.522Z,100612.28
2022-10-21T12:15:41.205Z,100611.97
2022-10-21T12:18:25.774Z,100596.00
2022-10-21T12:20:55.102Z,100582.81
2022-10-21T12:23:28.815Z,100589.72
2022-10-21T12:26:18.865Z,100587.66
2022-10-21T12:28:55.275Z,100588.13
2022-10-21T12:31:32.254Z,100587.13
2022-10-21T12:34:00.159Z,100594.31
2022-10-21T12:36:43.697Z,100580.91
2022-10-21T12:39:18.524Z,100574.66
2022-10-21T12:41:47.518Z,100566.63
2022-10-21T12:44:23.349Z,100567.69
2022-10-21T12:46:53.263Z,100563.13
2022-10-21T12:49:28.475Z,100562.81
2022-10-21T12:52:04.133Z,100554.53
2022-10-21T12:54:44.244Z,100551.66
2022-10-21T12:57:23.378Z,100555.13
2022-10-21T12:59:51.222Z,100568.50
2022-10-21T13:02:25.678Z,100572.00
2022-10-21T13:04:55.686Z,100570.28
2022-10-21T13:07:31.345Z,100572.91
2022-10-21T13:10:26.160Z,100573.84
2022-10-21T13:13:32.735Z,100566.47
2022-10-21T13:16:02.416Z,100569.81
2022-10-21T13:18:54.160Z,100568.56
2022-10-21T13:21:31.083Z,100581.09
2022-10-21T13:24:05.458Z,100577.53
2022-10-21T13:26:34.523Z,100576.41
2022-10-21T13:29:09.435Z,100584.81
2022-10-21T13:31:39.406Z,100582.19
2022-10-21T13:34:07.507Z,100591.25
2022-10-21T13:36:40.023Z,100601.13
2022-10-21T13:39:24.412Z,100598.44
2022-10-21T13:42:06.335Z,100599.25
2022-10-21T13:44:37.710Z,100599.25
2022-10-21T13:47:27.735Z,100600.84
2022-10-21T13:49:56.761Z,100588.78
2022-10-21T13:52:28.723Z,100588.56
2022-10-21T13:55:01.727Z,100590.09
2022-10-21T13:57:32.085Z,100590.75
2022-10-21T14:00:06.046Z,100587.09
2022-10-21T14:02:33.906Z,100586.16
2022-10-21T14:05:02.469Z,100587.88
2022-10-21T14:07:30.369Z,100590.66
2022-10-21T14:09:59.718Z,100586.06
2022-10-21T14:12:30.822Z,100582.53
2022-10-21T14:15:06.202Z,100576.34
2022-10-21T14:17:35.398Z,100575.59
2022-10-21T14:20:07.951Z,100581.84
2022-10-21T14:22:35.842Z,100576.56
2022-10-21T14:25:04.038Z,100562.34
2022-10-21T14:27:34.247Z,100564.19
2022-10-21T14:30:11.713Z,100557.88
2022-10-21T14:32:40.217Z,100567.06
2022-10-21T14:35:25.840Z,100565.22
2022-10-21T14:37:55.782Z,100562.66
2022-10-21T14:40:26.721Z,100568.09
2022-10-21T14:42:55.604Z,100573.41
2022-10-21T14:45:28.147Z,100564.63
2022-10-21T14:48:02.622Z,100571.81
2022-10-21T14:50:30.343Z,100574.44
2022-10-21T14:52:58.053Z,100580.44
2022-10-21T14:55:29.938Z,100569.38
2022-10-21T14:58:04.399Z,100571.06
2022-10-21T15:00:37.632Z,100569.97
2022-10-21T15:03:05.465Z,100570.75
2022-10-21T15:05:38.699Z,100567.91
2022-10-21T15:08:29.070Z,100568.72
2022-10-21T15:11:18.793Z,100564.97
2022-10-21T15:14:18.627Z,100570.44
2022-10-21T15:16:50.476Z,100573.31
2022-10-21T15:19:22.054Z,100571.78
2022-10-21T15:21:53.882Z,100571.16
2022-10-21T15:24:29.119Z,100570.47
2022-10-21T15:27:02.730Z,100570.78
2022-10-21T15:29:35.914Z,100569.97
2022-10-21T15:32:06.043Z,100563.91
2022-10-21T15:34:34.158Z,100564.06
2022-10-21T15:37:01.879Z,100563.38
2022-10-21T15:39:30.095Z,100567.19
2022-10-21T15:41:58.928Z,100562.72
2022-10-21T15:44:29.139Z,100568.22
2022-10-21T15:47:00.659Z,100570.03
2022-10-21T15:49:33.607Z,100573.69
2022-10-21T15:52:01.809Z,100569.28
2022-10-21T15:54:29.463Z,100573.13
2022-10-21T15:56:58.733Z,100573.25
2022-10-21T15:59:27.935Z,100570.75
2022-10-21T16:01:56.115Z,100571.00
2022-10-21T16:04:24.190Z,100576.66
2022-10-21T16:06:54.084Z,100567.84
2022-10-21T16:09:24.186Z,100580.69
2022-10-21T16:12:01.584Z,100580.13
2022-10-21T16:14:31.132Z,100583.97
2022-10-21T16:17:00.273Z,100579.72
2022-10-21T16:19:28.543Z,100592.56
2022-10-21T16:21:58.056Z,100598.09
2022-10-21T16:24:25.951Z,100601.00
2022-10-21T16:26:53.752Z,100602.03
2022-10-21T16:29:22.983Z,100605.94
2022-10-21T16:31:51.542Z,100598.91
2022-10-21T16:34:19.674Z,100606.28
2022-10-21T16:36:50.548Z,100602.81
2022-10-21T16:39:28.784Z,100608.50
2022-10-21T16:41:56.398Z,100610.56
2022-10-21T16:44:24.018Z,100608.94
2022-10-21T16:46:53.303Z,100604.53
2022-10-21T16:49:23.759Z,100609.06
2022-10-21T16:51:52.769Z,100611.03
2022-10-21T16:54:23.567Z,100611.06
2022-10-21T16:56:54.744Z,100614.78
2022-10-21T16:59:23.107Z,100607.66
2022-10-21T17:01:51.024Z,100615.00
2022-10-21T17:04:18.782Z,100619.59
2022-10-21T17:06:46.431Z,100619.84
2022-10-21T17:09:14.158Z,100621.84
2022-10-21T17:11:43.907Z,100621.22
2022-10-21T17:14:16.020Z,100621.41
2022-10-21T17:16:45.225Z,100623.38
2022-10-21T17:19:13.034Z,100622.59
2022-10-21T17:21:40.882Z,100630.88
2022-10-21T17:24:10.130Z,100637.22
2022-10-21T17:26:38.385Z,100633.72
2022-10-21T17:29:07.384Z,100642.69
2022-10-21T17:31:35.118Z,100642.75
2022-10-21T17:34:06.351Z,100643.72
2022-10-21T17:36:34.183Z,100651.03
2022-10-21T17:39:01.925Z,100645.81
2022-10-21T17:41:29.707Z,100662.09
2022-10-21T17:43:57.375Z,100659.59
2022-10-21T17:46:26.767Z,100656.13
2022-10-21T17:48:56.647Z,100662.53
2022-10-21T17:51:25.840Z,100659.81
2022-10-21T17:53:55.156Z,100659.88
2022-10-21T17:56:23.550Z,100656.34
2022-10-21T17:58:51.891Z,100666.28
2022-10-21T18:01:19.720Z,100660.94
2022-10-21T18:03:48.858Z,100669.16
2022-10-21T18:06:16.922Z,100664.75
2022-10-21T18:08:44.983Z,100663.03
2022-10-21T18:11:15.050Z,100664.91
2022-10-21T18:13:43.765Z,100667.78
2022-10-21T18:16:27.615Z,100675.97
2022-10-21T18:19:01.745Z,100677.94
2022-10-21T18:21:31.453Z,100673.56
2022-10-21T18:23:59.348Z,100668.25
2022-10-21T18:26:29.027Z,100671.88
2022-10-21T18:28:58.803Z,100673.84
2022-10-21T18:31:29.770Z,100672.13
2022-10-21T18:34:00.050Z,100677.66
2022-10-21T18:36:28.766Z,100676.03
2022-10-21T18:38:58.127Z,100681.56
2022-10-21T18:41:26.281Z,100686.19
2022-10-21T18:43:56.222Z,100680.97
2022-10-21T18:46:24.377Z,100682.88
2022-10-21T18:48:52.163Z,100679.38
2022-10-21T18:51:25.639Z,100684.75
2022-10-21T18:53:53.606Z,100680.34
2022-10-21T18:56:23.225Z,100678.56
2022-10-21T18:58:52.013Z,100675.00
2022-10-21T19:01:21.762Z,100684.88
2022-10-21T19:03:50.714Z,100691.13
2022-10-21T19:06:31.342Z,100690.25
2022-10-21T19:09:01.005Z,100689.34
2022-10-21T19:11:29.468Z,100688.50
2022-10-21T19:13:57.538Z,100684.13
2022-10-21T19:16:25.284Z,100687.75
2022-10-21T19:18:53.327Z,100691.44
2022-10-21T19:21:23.121Z,100692.50
2022-10-21T19:23:51.945Z,100692.50
2022-10-21T19:26:22.462Z,100693.47
2022-10-21T19:28:51.734Z,100689.00
2022-10-21T19:31:21.202Z,100688.94
2022-10-21T19:33:48.882Z,100679.09
2022-10-21T19:36:16.536Z,100682.69
2022-10-21T19:38:45.565Z,100694.41
2022-10-21T19:41:16.802Z,100682.75
2022-10-21T19:43:45.591Z,100684.59
2022-10-21T19:46:19.968Z,100684.66
2022-10-21T19:48:50.334Z,100690.16
2022-10-21T19:51:20.292Z,100692.03
2022-10-21T19:53:50.859Z,100684.91
2022-10-21T19:56:23.822Z,100683.13
2022-10-21T19:58:55.362Z,100688.53
2022-10-21T20:01:25.113Z,100697.59
2022-10-21T20:03:53.960Z,100698.63
2022-10-21T20:06:23.201Z,100701.31
2022-10-21T20:08:55.000Z,100699.56
2022-10-21T20:11:23.220Z,100701.38
2022-10-21T20:13:51.516Z,100697.81
2022-10-21T20:16:21.580Z,100705.88
2022-10-21T20:18:49.283Z,100705.09
2022-10-21T20:21:17.355Z,100706.91
2022-10-21T20:23:45.031Z,100721.41
2022-10-21T20:26:14.051Z,100730.41
2022-10-21T20:28:41.750Z,100724.22
2022-10-21T20:31:11.695Z,100734.06
2022-10-21T20:33:41.195Z,100735.91
2022-10-21T20:36:12.098Z,100745.84
2022-10-21T20:38:39.752Z,100747.69
2022-10-21T20:41:09.627Z,100743.25
2022-10-21T20:43:40.084Z,100744.19
2022-10-21T20:46:10.847Z,100745.06
2022-10-21T20:48:42.100Z,100736.22
2022-10-21T20:51:14.974Z,100747.91
2022-10-21T20:53:45.850Z,100744.34
2022-10-21T20:56:13.775Z,100746.22
2022-10-21T20:58:43.743Z,100746.22
2022-10-21T21:01:13.831Z,100739.09
2022-10-21T21:03:42.845Z,100757.09
2022-10-21T21:06:12.048Z,100754.41
2022-10-21T21:08:48.827Z,100751.78
2022-10-21T21:11:26.384Z,100755.44
2022-10-21T21:13:55.364Z,100754.63
2022-10-21T21:16:24.222Z,100759.09
2022-10-21T21:18:53.421Z,100757.34
2022-10-21T21:21:22.719Z,100760.06
2022-10-21T21:23:50.456Z,100765.50
2022-10-21T21:26:20.398Z,100769.16
2022-10-21T21:28:48.774Z,100771.84
2022-10-21T21:31:19.276Z,100770.94
2022-10-21T21:33:46.971Z,100767.38
2022-10-21T21:36:16.624Z,100751.22
2022-10-21T21:38:44.525Z,100750.41
2022-10-21T21:41:13.379Z,100754.94
2022-10-21T21:43:43.592Z,100745.97
2022-10-21T21:46:11.455Z,100754.09
2022-10-21T21:48:43.129Z,100753.25
2022-10-21T21:51:13.766Z,100744.34
2022-10-21T21:53:41.406Z,100752.47
2022-10-21T21:56:09.219Z,100751.63
2022-10-21T21:58:38.716Z,100749.00
2022-10-21T22:01:11.464Z,100745.44
2022-10-21T22:03:41.222Z,100746.38
2022-10-21T22:06:09.728Z,100743.69
2022-10-21T22:08:39.720Z,100751.72
2022-10-21T22:11:09.079Z,100758.00
2022-10-21T22:13:36.868Z,100744.53
2022-10-21T22:16:05.900Z,100737.44
2022-10-21T22:18:35.198Z,100740.13
2022-10-21T22:21:06.104Z,100744.59
2022-10-21T22:23:33.791Z,100744.66
2022-10-21T22:26:01.430Z,100729.44
2022-10-21T22:28:29.431Z,100734.84
2022-10-21T22:30:59.172Z,100743.88
2022-10-21T22:33:26.983Z,100734.88
2022-10-21T22:35:55.892Z,100746.59
2022-10-21T22:38:25.014Z,100743.09
2022-10-21T22:40:56.824Z,100737.72
2022-10-21T22:43:26.084Z,100745.75
2022-10-21T22:45:57.662Z,100748.41
2022-10-21T22:48:37.256Z,100741.34
2022-10-21T22:51:05.088Z,100736.00
2022-10-21T22:53:36.486Z,100736.00
2022-10-21T22:56:04.508Z,100743.19
2022-10-21T22:58:32.477Z,100743.19
2022-10-21T23:01:01.256Z,100744.97
2022-10-21T23:03:28.865Z,100737.88
2022-10-21T23:05:56.576Z,100746.84
2022-10-21T23:08:25.694Z,100743.28
2022-10-21T23:10:55.153Z,100734.31
2022-10-21T23:13:22.784Z,100737.91
2022-10-21T23:15:50.477Z,100746.03
2022-10-21T23:18:18.816Z,100738.06
2022-10-21T23:20:46.472Z,100742.53
2022-10-21T23:23:14.087Z,100747.03
2022-10-21T23:25:41.753Z,100754.25
2022-10-21T23:28:10.897Z,100753.38
2022-10-21T23:30:38.962Z,100755.16
2022-10-21T23:33:06.634Z,100757.00
2022-10-21T23:35:34.276Z,100760.63
2022-10-21T23:38:02.139Z,100765.09
2022-10-21T23:40:29.832Z,100755.34
2022-10-21T23:42:57.535Z,100760.72
2022-10-21T23:45:26.596Z,100758.91
2022-10-21T23:47:54.271Z,100766.09
2022-10-21T23:50:22.491Z,100767.88
2022-10-21T23:52:50.135Z,100767.00
2022-10-21T23:55:18.019Z,100772.44
2022-10-21T23:57:45.994Z,100776.88
